createdAt,value
2019-06-20T00:00:47.357Z,38.5
2019-06-20T00:01:47.382Z,38.5
2019-06-20T00:02:47.140Z,38.02
2019-06-20T00:03:47.430Z,38.78
2019-06-20T00:04:47.448Z,38.7
2019-06-20T00:05:47.516Z,38.89
2019-06-20T00:06:47.516Z,38.79
2019-06-20T00:07:47.306Z,38.78
2019-06-20T00:08:47.557Z,38.68
2019-06-20T00:09:47.331Z,38.48
2019-06-20T00:10:47.612Z,38.78
2019-06-20T00:11:47.640Z,38.48
2019-06-20T00:13:02.380Z,38.78
2019-06-20T00:13:47.442Z,38.68
2019-06-20T00:14:47.726Z,38.58
2019-06-20T00:15:47.757Z,38.58
2019-06-20T00:16:47.773Z,38.68
2019-06-20T00:17:47.813Z,38.58
2019-06-20T00:18:47.840Z,38.96
2019-06-20T00:19:47.856Z,38.96
2019-06-20T00:20:47.899Z,38.68
2019-06-20T00:21:47.912Z,38.68
2019-06-20T00:22:47.687Z,38.48
2019-06-20T00:23:48.017Z,38.87
2019-06-20T02:52:16.098Z,42.55
2019-06-20T02:53:15.866Z,42.35
2019-06-20T02:54:16.172Z,42.45
2019-06-20T02:55:16.170Z,42.55
2019-06-20T02:56:16.184Z,42.55
2019-06-20T02:57:16.222Z,42.65
2019-06-20T02:58:16.241Z,42.16
2019-06-20T02:59:16.258Z,42.55
2019-06-20T03:00:16.357Z,42.65
2019-06-20T03:01:16.317Z,42.74
2019-06-20T03:02:16.359Z,42.65
2019-06-20T03:03:16.399Z,42.83
2019-06-20T03:04:16.447Z,42.74
2019-06-20T03:05:16.167Z,43.23
2019-06-20T03:06:16.449Z,42.93
2019-06-20T03:07:16.676Z,42.93
2019-06-20T03:08:16.508Z,43.03
2019-06-20T03:09:16.518Z,43.13
2019-06-20T03:10:16.630Z,43.03
2019-06-20T03:11:16.563Z,42.93
2019-06-20T03:12:16.588Z,42.93
2019-06-20T03:13:16.616Z,42.93
2019-06-20T03:14:16.402Z,42.93
2019-06-20T03:15:16.675Z,42.91
2019-06-20T03:16:16.702Z,42.91
2019-06-20T03:17:16.720Z,43.03
2019-06-20T03:18:16.749Z,42.72
2019-06-20T03:19:16.505Z,42.91
2019-06-20T03:20:16.791Z,43.01
2019-06-20T03:21:16.817Z,42.82
2019-06-20T03:22:16.615Z,42.91
2019-06-20T03:23:16.870Z,42.82
2019-06-20T03:24:16.907Z,42.91
2019-06-20T03:25:16.947Z,42.91
2019-06-20T03:26:16.959Z,43.01
2019-06-20T03:27:16.965Z,42.91
2019-06-20T03:28:16.733Z,42.91
2019-06-20T03:29:17.026Z,42.91
2019-06-20T03:30:17.064Z,42.91
2019-06-20T03:31:17.095Z,42.72
2019-06-20T03:32:17.096Z,42.82
2019-06-20T03:33:16.893Z,42.91
2019-06-20T03:34:17.133Z,43.2
2019-06-20T03:35:17.185Z,43.01
2019-06-20T03:36:17.179Z,43.2
2019-06-20T03:37:17.472Z,43.1
2019-06-20T03:38:17.252Z,43.01
2019-06-20T03:39:17.277Z,43.1
2019-06-20T03:40:17.044Z,42.91
2019-06-20T03:41:17.339Z,43.1
2019-06-20T03:42:17.362Z,43.4
2019-06-20T03:43:17.362Z,43.4
2019-06-20T03:44:17.150Z,43.59
2019-06-20T03:45:17.444Z,43.4
2019-06-20T03:46:17.447Z,43.59
2019-06-20T03:47:17.472Z,43.49
2019-06-20T03:48:17.487Z,43.4
2019-06-20T03:49:17.265Z,43.4
2019-06-20T03:50:17.531Z,43.59
2019-06-20T03:51:17.328Z,43.3
2019-06-20T03:52:17.597Z,43.59
2019-06-20T03:53:17.349Z,43.68
2019-06-20T03:54:18.011Z,43.68
2019-06-20T03:55:17.597Z,43.4
2019-06-20T03:56:17.442Z,43.4
2019-06-20T03:57:17.729Z,43.4
2019-06-20T03:58:17.746Z,43.1
2019-06-20T03:59:17.765Z,43.78
2019-06-20T04:00:17.795Z,43.2
2019-06-20T04:01:17.808Z,43.68
2019-06-20T04:02:17.857Z,43.59
2019-06-20T04:03:17.617Z,43.68
2019-06-20T04:04:17.897Z,43.59
2019-06-20T04:05:17.951Z,43.68
2019-06-20T04:06:17.934Z,43.49
2019-06-20T04:07:17.965Z,43.78
2019-06-20T04:08:18.010Z,43.78
2019-06-20T04:09:18.025Z,43.68
2019-06-20T04:10:18.041Z,43.98
2019-06-20T04:11:18.063Z,43.68
2019-06-20T04:12:18.076Z,43.98
2019-06-20T04:13:17.858Z,43.78
2019-06-20T04:14:17.888Z,44.26
2019-06-20T04:15:21.818Z,44.75
2019-06-20T04:16:18.238Z,45.23
2019-06-20T04:17:18.231Z,45.62
2019-06-20T04:18:17.970Z,45.62
2019-06-20T04:19:18.252Z,45.91
2019-06-20T04:20:18.300Z,46.3
2019-06-20T04:21:18.313Z,46.68
2019-06-20T04:22:18.108Z,46.68
2019-06-20T04:23:18.115Z,46.78
2019-06-20T04:24:18.375Z,46.49
2019-06-20T04:25:18.408Z,46.39
2019-06-20T04:26:18.426Z,46.39
2019-06-20T04:27:18.500Z,46.39
2019-06-20T04:28:18.232Z,46.1
2019-06-20T04:29:18.512Z,46.3
2019-06-20T04:30:18.280Z,46.3
2019-06-20T04:31:18.571Z,46.39
2019-06-20T04:32:18.587Z,46.49
2019-06-20T04:33:18.600Z,46.88
2019-06-20T04:34:18.645Z,46.68
2019-06-20T04:35:18.655Z,46.68
2019-06-20T04:36:18.680Z,46.78
2019-06-20T04:37:18.717Z,46.68
2019-06-20T04:38:18.757Z,46.88
2019-06-20T04:39:22.014Z,47.16
2019-06-20T04:40:18.774Z,46.97
2019-06-20T04:41:18.836Z,47.07
2019-06-20T04:42:21.172Z,47.16
2019-06-20T04:43:18.600Z,47.07
2019-06-20T04:44:18.876Z,47.45
2019-06-20T04:45:31.403Z,47.55
2019-06-20T04:46:18.994Z,47.55
2019-06-20T04:47:18.698Z,47.45
2019-06-20T04:48:18.986Z,47.45
2019-06-20T04:49:22.208Z,47.74
2019-06-20T04:50:19.027Z,47.94
2019-06-20T04:51:19.059Z,48.13
2019-06-20T04:52:19.138Z,48.61
2019-06-20T04:53:19.112Z,48.42
2019-06-20T04:54:19.127Z,48.32
2019-06-20T04:55:19.158Z,48.9
2019-06-20T04:56:19.169Z,48.81
2019-06-20T04:57:19.215Z,48.81
2019-06-20T04:58:19.240Z,48.81
2019-06-20T04:59:19.283Z,48.71
2019-06-20T05:00:19.305Z,48.9
2019-06-20T05:01:19.348Z,48.81
2019-06-20T05:02:19.340Z,48.71
2019-06-20T05:03:19.101Z,48.69
2019-06-20T05:04:19.402Z,48.49
2019-06-20T05:05:19.423Z,48.61
2019-06-20T05:06:19.502Z,48.9
2019-06-20T05:07:19.458Z,48.81
2019-06-20T05:08:19.214Z,48.71
2019-06-20T05:09:19.243Z,49.39
2019-06-20T05:10:19.527Z,49.1
2019-06-20T05:11:19.555Z,49
2019-06-20T05:12:19.575Z,49.39
2019-06-20T05:13:19.604Z,49.75
2019-06-20T05:14:19.835Z,49.68
2019-06-20T05:15:19.651Z,49.75
2019-06-20T05:16:19.469Z,49.75
2019-06-20T05:17:19.709Z,50.33
2019-06-20T05:18:19.729Z,49.85
2019-06-20T05:19:19.770Z,49.75
2019-06-20T05:20:19.787Z,49.65
2019-06-20T05:21:22.355Z,49.65
2019-06-20T05:22:19.828Z,49.75
2019-06-20T05:23:19.858Z,49.65
2019-06-20T05:24:19.864Z,49.65
2019-06-20T05:25:19.904Z,49.85
2019-06-20T05:26:19.914Z,49.46
2019-06-20T05:27:19.933Z,49.37
2019-06-20T05:28:20.582Z,49.37
2019-06-20T05:29:19.988Z,49.27
2019-06-20T05:30:20.011Z,49.37
2019-06-20T05:31:20.039Z,49.85
2019-06-20T05:32:20.057Z,49.85
2019-06-20T05:33:20.083Z,49.75
2019-06-20T05:34:20.133Z,49.55
2019-06-20T05:35:20.139Z,49.65
2019-06-20T05:36:20.182Z,49.46
2019-06-20T05:37:20.202Z,49.65
2019-06-20T05:38:19.979Z,49.85
2019-06-20T05:39:20.251Z,50.04
2019-06-20T05:40:20.262Z,49.85
2019-06-20T05:41:20.281Z,49.75
2019-06-20T05:42:20.325Z,49.85
2019-06-20T05:43:20.356Z,50.62
2019-06-20T05:44:20.369Z,49.65
2019-06-20T05:45:20.159Z,50.59
2019-06-20T05:46:20.417Z,50.13
2019-06-20T05:47:20.492Z,49.95
2019-06-20T05:48:20.500Z,50.13
2019-06-20T05:49:21.221Z,50.81
2019-06-20T05:50:20.677Z,50.62
2019-06-20T05:51:20.589Z,50.81
2019-06-20T05:52:20.560Z,50.04
2019-06-20T05:53:20.600Z,50.91
2019-06-20T05:54:20.623Z,50.13
2019-06-20T05:55:20.646Z,50.33
2019-06-20T05:56:20.654Z,50.33
2019-06-20T05:57:20.707Z,50.71
2019-06-20T05:58:20.698Z,50.33
2019-06-20T05:59:20.732Z,50.23
2019-06-20T06:00:21.028Z,50.33
2019-06-20T06:01:20.784Z,50.62
2019-06-20T06:02:20.899Z,50.04
2019-06-20T06:03:21.443Z,50.62
2019-06-20T06:04:20.590Z,50.13
2019-06-20T06:05:21.809Z,50.33
2019-06-20T06:06:20.920Z,50.43
2019-06-20T06:07:20.936Z,50.71
2019-06-20T06:08:20.968Z,50.23
2019-06-20T06:09:20.982Z,50.33
2019-06-20T06:10:20.995Z,50.43
2019-06-20T06:11:21.035Z,50.04
2019-06-20T06:12:21.044Z,49.85
2019-06-20T06:13:21.083Z,50.23
2019-06-20T06:14:20.850Z,50.13
2019-06-20T06:15:21.139Z,49.85
2019-06-20T06:16:29.729Z,50.04
2019-06-20T06:17:21.301Z,50.23
2019-06-20T06:18:21.207Z,50.71
2019-06-20T06:19:21.661Z,49.85
2019-06-20T06:20:21.253Z,50.13
2019-06-20T06:21:21.025Z,49.95
2019-06-20T06:22:21.308Z,49.65
2019-06-20T06:23:21.324Z,50.26
2019-06-20T06:24:21.375Z,50.13
2019-06-20T06:25:21.481Z,50.26
2019-06-20T06:26:21.406Z,50.26
2019-06-20T06:27:21.429Z,50.93
2019-06-20T06:28:21.192Z,50.16
2019-06-20T06:29:21.240Z,51.03
2019-06-20T06:30:21.487Z,50.84
2019-06-20T06:31:21.522Z,50.84
2019-06-20T06:32:36.365Z,50.93
2019-06-20T06:33:21.563Z,51.03
2019-06-20T06:34:24.226Z,51.03
2019-06-20T06:35:21.646Z,50.93
2019-06-20T06:36:21.812Z,50.93
2019-06-20T06:37:21.423Z,51.13
2019-06-20T06:38:24.749Z,51.23
2019-06-20T06:39:21.472Z,50.48
2019-06-20T06:40:21.750Z,50.96
2019-06-20T06:41:21.754Z,50.86
2019-06-20T06:42:21.779Z,50.96
2019-06-20T06:43:21.555Z,51.15
2019-06-20T06:44:21.965Z,50.96
2019-06-20T06:45:22.178Z,50.48
2019-06-20T06:46:21.829Z,50.48
2019-06-20T06:47:22.196Z,50.48
2019-06-20T06:48:21.953Z,50.57
2019-06-20T06:49:21.970Z,50.76
2019-06-20T06:50:21.727Z,50.76
2019-06-20T06:51:21.765Z,50.79
2019-06-20T06:52:22.044Z,50.48
2019-06-20T06:53:21.815Z,50.48
2019-06-20T06:54:22.118Z,50.57
2019-06-20T06:55:22.120Z,50.5
2019-06-20T06:56:22.146Z,50.98
2019-06-20T06:57:22.176Z,51.18
2019-06-20T06:58:22.181Z,51.18
2019-06-20T06:59:22.238Z,51.76
2019-06-20T07:00:22.248Z,51.56
2019-06-20T07:01:22.051Z,51.37
2019-06-20T07:02:22.288Z,51.56
2019-06-20T07:03:22.536Z,51.47
2019-06-20T07:04:22.644Z,51.47
2019-06-20T07:05:22.368Z,51.56
2019-06-20T07:06:22.382Z,51.18
2019-06-20T07:07:22.178Z,51.37
2019-06-20T07:08:22.432Z,50.98
2019-06-20T07:09:22.205Z,50.89
2019-06-20T07:10:22.502Z,51.18
2019-06-20T07:11:22.268Z,50.98
2019-06-20T07:12:22.534Z,50.98
2019-06-20T07:13:22.566Z,51.28
2019-06-20T07:14:22.637Z,51.47
2019-06-20T07:15:22.629Z,51.47
2019-06-20T07:16:22.642Z,51.28
2019-06-20T07:17:22.679Z,51.66
2019-06-20T07:18:22.706Z,51.86
2019-06-20T07:19:22.714Z,51.66
2019-06-20T07:20:23.070Z,51.37
2019-06-20T07:21:22.760Z,52.05
2019-06-20T07:22:22.862Z,51.66
2019-06-20T07:23:22.891Z,51.76
2019-06-20T07:24:22.849Z,51.76
2019-06-20T07:25:22.863Z,51.86
2019-06-20T07:26:22.899Z,51.76
2019-06-20T07:27:22.914Z,51.66
2019-06-20T07:28:22.684Z,51.47
2019-06-20T07:29:22.953Z,51.66
2019-06-20T07:30:22.991Z,51.47
2019-06-20T07:31:23.041Z,51.47
2019-06-20T07:32:23.053Z,51.47
2019-06-20T07:33:23.072Z,51.37
2019-06-20T07:34:23.111Z,51.66
2019-06-20T07:35:23.102Z,51.47
2019-06-20T07:36:23.257Z,51.08
2019-06-20T07:37:23.201Z,51.66
2019-06-20T07:38:23.196Z,51.18
2019-06-20T07:39:22.955Z,51.47
2019-06-20T07:40:23.248Z,51.56
2019-06-20T07:41:23.462Z,51.28
2019-06-20T07:42:23.276Z,51.4
2019-06-20T07:43:23.334Z,51.4
2019-06-20T07:44:23.094Z,51.37
2019-06-20T07:45:26.947Z,51.01
2019-06-20T07:46:23.391Z,50.98
2019-06-20T07:47:23.426Z,50.6
2019-06-20T07:48:23.429Z,50.6
2019-06-20T07:49:23.207Z,50.52
2019-06-20T07:50:23.509Z,50.24
2019-06-20T07:51:23.510Z,50.14
2019-06-20T07:52:23.526Z,50.52
2019-06-20T07:53:23.571Z,50.82
2019-06-20T07:54:23.336Z,50.14
2019-06-20T07:55:23.622Z,50.14
2019-06-20T07:56:23.651Z,50.82
2019-06-20T07:57:23.682Z,49.65
2019-06-20T07:58:23.685Z,49.95
2019-06-20T07:59:23.458Z,49.85
2019-06-20T08:00:23.740Z,49.46
2019-06-20T08:01:23.763Z,49.29
2019-06-20T08:02:23.821Z,49.49
2019-06-20T08:03:23.830Z,49.29
2019-06-20T08:04:23.833Z,49.58
2019-06-20T08:05:23.912Z,49.49
2019-06-20T08:06:23.636Z,49.49
2019-06-20T08:07:23.911Z,49.12
2019-06-20T08:08:23.933Z,49.02
2019-06-20T08:09:24.686Z,49.02
2019-06-20T08:10:23.771Z,48.93
2019-06-20T08:11:24.006Z,48.83
2019-06-20T08:12:24.038Z,48.74
2019-06-20T08:13:24.063Z,49.02
2019-06-20T08:14:23.836Z,48.74
2019-06-20T08:15:23.865Z,49.05
2019-06-20T08:16:24.141Z,48.47
2019-06-20T08:17:37.313Z,48.95
2019-06-20T08:18:24.191Z,48.95
2019-06-20T08:19:24.237Z,48.95
2019-06-20T08:20:24.263Z,49.05
2019-06-20T08:21:24.271Z,48.49
2019-06-20T08:22:24.060Z,48.59
2019-06-20T08:23:24.333Z,48.88
2019-06-20T08:24:24.363Z,48.39
2019-06-20T08:25:24.388Z,48.22
2019-06-20T08:26:24.388Z,47.93
2019-06-20T08:27:24.434Z,47.83
2019-06-20T08:28:24.442Z,47.74
2019-06-20T08:29:24.470Z,47.64
2019-06-20T08:30:24.493Z,47.25
2019-06-20T08:31:24.533Z,47.28
2019-06-20T08:32:24.303Z,47.18
2019-06-20T08:33:24.583Z,47.47
2019-06-20T08:34:24.598Z,46.98
2019-06-20T08:35:24.627Z,46.98
2019-06-20T08:36:24.739Z,47.47
2019-06-20T08:37:24.679Z,47.47
2019-06-20T08:38:24.715Z,47.01
2019-06-20T08:39:24.762Z,47.2
2019-06-20T08:40:24.775Z,47.01
2019-06-20T08:41:24.799Z,46.91
2019-06-20T08:42:24.833Z,46.62
2019-06-20T08:43:24.831Z,46.72
2019-06-20T08:44:24.862Z,46.45
2019-06-20T08:45:24.886Z,46.45
2019-06-20T08:46:24.979Z,46.15
2019-06-20T08:47:24.944Z,46.06
2019-06-20T08:48:24.958Z,45.87
2019-06-20T08:49:24.742Z,45.97
2019-06-20T08:50:25.040Z,45.79
2019-06-20T08:51:25.042Z,45.89
2019-06-20T08:52:25.106Z,45.69
2019-06-20T08:53:24.843Z,45.4
2019-06-20T08:54:24.869Z,45.5
2019-06-20T08:55:25.158Z,45.21
2019-06-20T08:56:24.921Z,44.94
2019-06-20T08:57:25.847Z,44.84
2019-06-20T08:58:25.239Z,44.55
2019-06-20T08:59:27.323Z,43.96
2019-06-20T09:00:25.319Z,44.45
2019-06-20T09:01:25.305Z,43.89
2019-06-20T09:02:25.347Z,44.09
2019-06-20T09:03:25.366Z,43.99
2019-06-20T09:04:25.395Z,43.89
2019-06-20T09:05:25.402Z,43.11
2019-06-20T09:06:25.473Z,43.52
2019-06-20T09:07:25.486Z,43.43
2019-06-20T09:08:25.521Z,43.62
2019-06-20T09:09:25.298Z,42.94
2019-06-20T09:10:25.291Z,42.96
2019-06-20T09:11:25.592Z,42.86
2019-06-20T09:12:25.347Z,42.66
2019-06-20T09:13:25.646Z,42.3
2019-06-20T09:14:25.402Z,42.1
2019-06-20T09:15:25.696Z,41.52
2019-06-20T09:16:27.375Z,41.81
2019-06-20T09:17:25.482Z,41.44
2019-06-20T09:18:25.778Z,40.76
2019-06-20T09:19:25.777Z,40.37
2019-06-20T09:20:25.572Z,40.47
2019-06-20T09:21:25.874Z,39.98
2019-06-20T09:22:25.885Z,39.8
2019-06-20T09:23:25.913Z,39.51
2019-06-20T09:24:25.677Z,39.61
2019-06-20T09:25:25.947Z,39.12
2019-06-20T09:26:25.998Z,38.92
2019-06-20T09:27:26.020Z,38.82
2019-06-20T09:28:26.044Z,38.92
2019-06-20T09:29:33.063Z,38.84
2019-06-20T09:30:25.859Z,38.75
2019-06-20T09:31:26.128Z,38.65
2019-06-20T09:32:26.205Z,37.96
2019-06-20T09:33:25.913Z,38.35
2019-06-20T09:34:26.217Z,38.38
2019-06-20T09:35:26.235Z,37.99
2019-06-20T09:36:26.243Z,38.28
2019-06-20T09:37:26.278Z,37.6
2019-06-20T09:38:26.311Z,36.91
2019-06-20T09:39:26.361Z,37.4
2019-06-20T09:40:26.383Z,37.4
2019-06-20T09:41:26.445Z,37.12
2019-06-20T09:42:26.426Z,37.12
2019-06-20T09:43:30.181Z,36.93
2019-06-20T09:44:26.487Z,37.12
2019-06-20T09:45:26.509Z,36.83
2019-06-20T09:46:26.590Z,36.83
2019-06-20T09:47:26.562Z,36.54
2019-06-20T09:48:26.613Z,36.05
2019-06-20T09:49:26.614Z,36.05
2019-06-20T09:50:26.662Z,36.05
2019-06-20T09:51:26.680Z,36.15
2019-06-20T09:52:26.835Z,35.85
2019-06-20T09:53:26.499Z,35.85
2019-06-20T09:54:26.796Z,35.85
2019-06-20T09:55:26.536Z,35.85
2019-06-20T09:56:26.625Z,35.95
2019-06-20T09:57:26.859Z,36.07
2019-06-20T09:58:26.892Z,35.87
2019-06-20T09:59:30.402Z,35.36
2019-06-20T10:00:26.944Z,35.77
2019-06-20T10:01:26.968Z,35.77
2019-06-20T10:02:27.017Z,35.87
2019-06-20T10:03:27.271Z,35.77
2019-06-20T10:04:27.081Z,35.77
2019-06-20T10:05:27.092Z,35.77
2019-06-20T10:06:27.103Z,35.68
2019-06-20T10:07:27.144Z,35.97
2019-06-20T10:08:27.171Z,35.48
2019-06-20T10:09:27.209Z,35.58
2019-06-20T10:10:26.973Z,35.48
2019-06-20T10:11:27.248Z,35.21
2019-06-20T10:12:27.300Z,35.09
2019-06-20T10:13:27.321Z,34.7
2019-06-20T10:14:27.087Z,34.52
2019-06-20T10:15:27.387Z,35.21
2019-06-20T10:16:27.413Z,35.01
2019-06-20T10:17:27.453Z,35.3
2019-06-20T10:18:27.453Z,35.11
2019-06-20T10:19:27.248Z,35.11
2019-06-20T10:20:27.541Z,35.21
2019-06-20T10:21:27.565Z,35.22
2019-06-20T10:22:27.336Z,35.13
2019-06-20T10:23:27.617Z,35.03
2019-06-20T10:24:27.661Z,35.13
2019-06-20T10:25:27.690Z,34.74
2019-06-20T10:26:27.698Z,35.03
2019-06-20T10:27:27.724Z,34.64
2019-06-20T10:28:27.758Z,34.55
2019-06-20T10:29:27.797Z,34.75
2019-06-20T10:30:27.830Z,34.36
2019-06-20T10:31:27.858Z,34.36
2019-06-20T10:32:27.933Z,34.36
2019-06-20T10:33:27.923Z,34.06
2019-06-20T10:34:30.461Z,33.87
2019-06-20T10:35:27.967Z,33.79
2019-06-20T10:36:28.005Z,33.69
2019-06-20T10:37:28.035Z,33.69
2019-06-20T10:38:28.054Z,33.69
2019-06-20T10:39:28.094Z,33.59
2019-06-20T10:40:27.854Z,33.5
2019-06-20T10:41:28.147Z,33.5
2019-06-20T10:42:28.184Z,33.9
2019-06-20T10:43:28.196Z,33.22
2019-06-20T10:44:28.230Z,32.82
2019-06-20T10:45:28.251Z,33.22
2019-06-20T10:46:28.297Z,32.43
2019-06-20T10:47:37.436Z,32.63
2019-06-20T10:48:28.368Z,32.64
2019-06-20T10:49:28.118Z,32.73
2019-06-20T10:50:28.453Z,32.74
2019-06-20T10:51:28.458Z,32.54
2019-06-20T10:52:28.256Z,32.45
2019-06-20T10:53:28.492Z,32.45
2019-06-20T10:54:28.264Z,32.54
2019-06-20T10:55:28.579Z,32.54
2019-06-20T10:56:28.607Z,32.54
2019-06-20T10:57:28.379Z,32.35
2019-06-20T10:58:28.836Z,32.54
2019-06-20T10:59:28.699Z,32.25
2019-06-20T11:00:34.044Z,32.15
2019-06-20T11:01:28.750Z,32.35
2019-06-20T11:02:28.765Z,31.76
2019-06-20T11:03:29.683Z,31.76
2019-06-20T11:04:28.575Z,31.57
2019-06-20T11:05:28.888Z,31.76
2019-06-20T11:06:28.927Z,31.77
2019-06-20T11:07:28.665Z,31.58
2019-06-20T11:08:28.712Z,30.99
2019-06-20T11:09:28.819Z,30.6
2019-06-20T11:10:29.018Z,30.9
2019-06-20T11:11:29.060Z,30.9
2019-06-20T11:12:42.523Z,30.7
2019-06-20T11:13:29.115Z,30.7
2019-06-20T11:14:29.127Z,30.99
2019-06-20T11:15:29.175Z,30.5
2019-06-20T11:16:29.211Z,30.6
2019-06-20T11:17:29.249Z,30.6
2019-06-20T11:18:29.265Z,30.4
2019-06-20T11:19:29.321Z,30.7
2019-06-20T11:20:29.327Z,30.7
2019-06-20T11:21:29.377Z,30.5
2019-06-20T11:22:29.402Z,30.5
2019-06-20T11:23:29.412Z,30.7
2019-06-20T11:24:29.451Z,30.62
2019-06-20T11:25:29.232Z,30.62
2019-06-20T11:26:29.546Z,30.52
2019-06-20T11:27:29.537Z,30.62
2019-06-20T11:28:29.570Z,30.32
2019-06-20T11:29:29.974Z,30.12
2019-06-20T11:30:42.105Z,30.12
2019-06-20T11:31:29.410Z,30.22
2019-06-20T11:32:29.710Z,30.32
2019-06-20T11:33:29.578Z,30.12
2019-06-20T11:34:29.783Z,29.73
2019-06-20T11:35:29.537Z,29.73
2019-06-20T11:36:29.858Z,29.24
2019-06-20T11:37:29.853Z,29.35
2019-06-20T11:38:29.887Z,29.45
2019-06-20T11:39:29.648Z,29.75
2019-06-20T11:40:29.968Z,29.85
2019-06-20T11:41:30.056Z,29.57
2019-06-20T11:42:30.004Z,29.27
2019-06-20T11:43:30.066Z,29.27
2019-06-20T11:44:30.126Z,28.88
2019-06-20T11:45:30.139Z,29.07
2019-06-20T11:46:30.142Z,29.47
2019-06-20T11:47:30.159Z,29.37
2019-06-20T11:48:29.937Z,29.17
2019-06-20T11:49:29.968Z,29.37
2019-06-20T11:50:30.256Z,29.37
2019-06-20T11:51:30.039Z,29.55
2019-06-20T11:52:34.131Z,29.25
2019-06-20T11:53:30.380Z,29.57
2019-06-20T11:54:31.862Z,29.35
2019-06-20T11:55:30.407Z,29.76
2019-06-20T11:56:30.484Z,29.57
2019-06-20T11:57:30.485Z,29.57
2019-06-20T11:58:30.512Z,29.17
2019-06-20T11:59:30.543Z,29.47
2019-06-20T12:00:30.598Z,29.17
2019-06-20T12:01:35.306Z,29.19
2019-06-20T12:02:30.634Z,28.5
2019-06-20T12:03:30.671Z,28.11
2019-06-20T12:04:30.453Z,27.81
2019-06-20T12:05:30.723Z,28.4
2019-06-20T12:06:30.754Z,28
2019-06-20T12:07:30.805Z,27.91
2019-06-20T12:08:30.822Z,28.4
2019-06-20T12:09:30.868Z,27.92
2019-06-20T12:10:30.874Z,28.22
2019-06-20T12:11:30.926Z,27.92
2019-06-20T12:12:30.962Z,27.82
2019-06-20T12:13:30.996Z,27.72
2019-06-20T12:14:30.750Z,27.53
2019-06-20T12:15:31.052Z,27.33
2019-06-20T12:16:31.078Z,27.51
2019-06-20T12:17:31.121Z,27.71
2019-06-20T12:18:31.138Z,27.81
2019-06-20T12:19:31.262Z,27.61
2019-06-20T12:20:31.215Z,27.32
2019-06-20T12:21:31.232Z,27.12
2019-06-20T12:22:31.289Z,27.6
2019-06-20T12:23:31.353Z,26.92
2019-06-20T12:24:31.350Z,27.5
2019-06-20T12:25:31.374Z,27.51
2019-06-20T12:26:31.430Z,27.42
2019-06-20T12:27:31.219Z,27.42
2019-06-20T12:28:31.408Z,27.12
2019-06-20T12:29:31.493Z,27.22
2019-06-20T12:30:31.518Z,27.12
2019-06-20T13:38:02.509Z,22.7
2019-06-20T13:39:02.286Z,22.89
2019-06-20T13:40:02.702Z,22.2
2019-06-20T13:41:02.624Z,22.22
2019-06-20T13:42:02.407Z,22.02
2019-06-20T13:43:02.668Z,22.03
2019-06-20T13:44:02.717Z,21.53
2019-06-20T13:45:02.752Z,21.74
2019-06-20T13:46:02.801Z,21.45
2019-06-20T13:47:02.865Z,21.56
2019-06-20T13:48:02.900Z,21.06
2019-06-20T13:49:02.878Z,21.17
2019-06-20T13:50:02.666Z,21.27
2019-06-20T13:51:02.963Z,20.49
2019-06-20T13:52:02.978Z,20.59
2019-06-20T13:53:03.023Z,20.59
2019-06-20T13:54:03.040Z,20.79
2019-06-20T13:55:03.093Z,20.6
2019-06-20T13:56:03.119Z,20.6
2019-06-20T13:57:03.157Z,20.3
2019-06-20T13:58:02.932Z,20.41
2019-06-20T13:59:03.244Z,20.31
2019-06-20T14:00:03.265Z,19.71
2019-06-20T14:01:03.327Z,19.53
2019-06-20T14:02:08.911Z,19.53
2019-06-20T14:03:03.346Z,19.34
2019-06-20T14:04:03.149Z,19.24
2019-06-20T14:05:03.159Z,19.25
2019-06-20T19:38:26.436Z,34.06
2019-06-20T19:39:26.453Z,34.26
2019-06-20T19:40:26.562Z,34.06
2019-06-20T19:41:26.532Z,34.36
2019-06-20T19:42:26.541Z,34.36
2019-06-20T19:43:26.583Z,34.16
2019-06-20T19:44:26.601Z,34.55
2019-06-20T19:45:26.629Z,34.45
2019-06-20T19:46:26.680Z,34.34
2019-06-20T19:47:26.713Z,34.24
2019-06-20T19:48:27.334Z,34.24
2019-06-20T19:49:26.508Z,34.05
2019-06-20T19:50:26.854Z,35.02
2019-06-20T19:51:26.574Z,34.53
2019-06-20T19:52:26.874Z,34.73
2019-06-20T19:53:26.874Z,34.44
2019-06-20T19:54:26.656Z,34.73
2019-06-20T19:55:26.928Z,34.73
2019-06-20T19:56:26.968Z,34.63
2019-06-20T19:57:26.742Z,34.63
2019-06-20T19:58:27.022Z,34.44
2019-06-20T19:59:27.082Z,34.91
2019-06-20T20:00:27.105Z,34.83
2019-06-20T20:01:27.132Z,34.81
2019-06-20T20:02:27.184Z,34.61
2019-06-20T20:03:27.190Z,34.61
2019-06-20T20:04:27.226Z,34.71
2019-06-20T20:05:27.242Z,34.71
2019-06-20T20:06:27.324Z,34.61
2019-06-20T20:07:27.318Z,34.61
2019-06-20T20:08:27.319Z,34.52
2019-06-20T20:09:27.370Z,34.61
2019-06-20T20:10:27.382Z,34.61
2019-06-20T20:11:27.427Z,34.52
2019-06-20T20:12:27.489Z,34.89
2019-06-20T20:13:27.478Z,35.08
2019-06-20T20:14:27.540Z,35.08
2019-06-20T20:15:27.559Z,35.08
2019-06-20T20:16:27.576Z,35.28
2019-06-20T20:17:27.593Z,34.99
2019-06-20T20:18:27.621Z,35.08
2019-06-20T20:19:27.671Z,35.38
2019-06-20T20:20:27.711Z,35.28
2019-06-20T20:21:27.759Z,35.75
2019-06-20T20:22:27.753Z,35.85
2019-06-20T20:23:27.837Z,35.46
2019-06-20T20:24:27.870Z,35.65
2019-06-20T20:25:27.828Z,35.94
2019-06-20T20:26:27.888Z,35.85
2019-06-20T20:27:27.886Z,35.85
2019-06-20T20:28:28.030Z,36.33
2019-06-20T20:29:27.954Z,36.04
2019-06-20T20:30:27.975Z,36.41
2019-06-20T20:31:27.779Z,36.71
2019-06-20T20:32:28.048Z,37.19
2019-06-20T20:33:28.065Z,37.29
2019-06-20T20:34:28.089Z,37.39
2019-06-20T20:35:38.101Z,38.07
2019-06-20T20:36:28.164Z,38.65
2019-06-20T20:37:27.950Z,38.75
2019-06-20T20:38:28.220Z,38.95
2019-06-20T20:39:28.258Z,39.14
2019-06-20T20:40:28.276Z,39.14
2019-06-20T20:41:28.288Z,38.93
2019-06-20T20:42:28.359Z,39.03
2019-06-20T20:43:28.350Z,39.22
2019-06-20T20:44:28.377Z,39.22
2019-06-20T20:45:28.425Z,39.22
2019-06-20T20:46:28.189Z,39.31
2019-06-20T20:47:30.910Z,39.59
2019-06-20T20:48:28.495Z,39.29
2019-06-20T20:49:28.541Z,39.59
2019-06-20T20:50:28.570Z,39.39
2019-06-20T20:51:28.597Z,39.59
2019-06-20T20:52:28.657Z,39.98
2019-06-20T20:53:28.676Z,39.98
2019-06-20T20:54:28.671Z,39.98
2019-06-20T20:55:28.716Z,40.06
2019-06-20T20:56:28.732Z,40.06
2019-06-20T20:57:28.780Z,40.25
2019-06-20T20:58:28.798Z,40.15
2019-06-20T20:59:28.829Z,40.15
2019-06-20T21:00:28.597Z,40.34
2019-06-20T21:01:28.889Z,40.34
2019-06-20T21:02:28.917Z,40.34
2019-06-20T21:03:28.943Z,40.25
2019-06-20T21:04:28.972Z,40.03
2019-06-20T21:05:28.998Z,40.34
2019-06-20T21:06:29.005Z,39.94
2019-06-20T21:07:29.165Z,39.84
2019-06-20T21:08:32.091Z,40.03
2019-06-20T21:09:29.172Z,40.23
2019-06-20T21:10:29.225Z,40.03
2019-06-20T21:11:29.250Z,40.03
2019-06-20T21:12:29.202Z,40.13
2019-06-20T21:13:29.212Z,39.94
2019-06-20T21:14:29.255Z,40.23
2019-06-20T21:15:29.278Z,40.23
2019-06-20T21:16:29.323Z,40.13
2019-06-20T21:17:29.378Z,39.84
2019-06-20T21:18:29.124Z,40.01
2019-06-20T21:19:29.398Z,39.94
2019-06-20T21:20:29.407Z,40.11
2019-06-20T21:21:29.451Z,40.11
2019-06-20T21:22:29.465Z,40.01
2019-06-20T21:23:29.515Z,39.92
2019-06-20T21:24:29.349Z,40.21
2019-06-20T21:25:32.119Z,40.41
2019-06-20T21:26:29.587Z,40.21
2019-06-20T21:27:29.612Z,40.31
2019-06-20T21:28:29.641Z,40.31
2019-06-20T21:29:29.716Z,40.21
2019-06-20T21:30:29.713Z,40.69
2019-06-20T21:31:29.729Z,40.41
2019-06-20T21:32:29.515Z,40.48
2019-06-20T21:33:29.788Z,40.29
2019-06-20T21:34:29.803Z,40.39
2019-06-20T21:35:29.851Z,40.39
2019-06-20T21:36:29.875Z,40.29
2019-06-20T21:37:29.892Z,40.48
2019-06-20T21:38:29.905Z,40.48
2019-06-20T21:39:29.936Z,40.39
2019-06-20T21:40:29.982Z,40.39
2019-06-20T21:41:30.016Z,40.39
2019-06-20T21:42:30.054Z,40.77
2019-06-20T21:43:30.070Z,41.06
2019-06-20T21:44:30.087Z,40.87
2019-06-20T21:45:30.105Z,40.75
2019-06-20T21:46:30.147Z,40.95
2019-06-20T21:47:30.151Z,40.85
2019-06-20T21:48:30.208Z,40.75
2019-06-20T21:49:30.236Z,40.85
2019-06-20T21:50:30.241Z,40.85
2019-06-20T21:51:30.287Z,40.75
2019-06-20T21:52:30.326Z,41.05
2019-06-20T21:53:30.091Z,41.05
2019-06-20T21:54:30.375Z,41.05
2019-06-20T21:55:30.402Z,41.24
2019-06-20T21:56:30.418Z,41.24
2019-06-20T21:57:30.445Z,41.14
2019-06-20T21:58:30.463Z,41.22
2019-06-20T21:59:30.487Z,41.61
2019-06-20T22:00:30.618Z,41.41
2019-06-20T22:01:30.635Z,41.51
2019-06-20T22:02:30.599Z,41.61